createdAt,value
2018-11-02T01:42:41.062Z,18.13
2018-11-02T01:44:43.245Z,17.10
2018-11-02T01:46:45.362Z,18.90
2018-11-02T01:48:47.498Z,20.77
2018-11-02T04:02:34.998Z,21.00
2018-11-02T04:04:37.131Z,19.63
2018-11-02T04:06:39.236Z,21.80
2018-11-02T04:16:35.802Z,17.60
2018-11-02T04:18:37.928Z,19.57
2018-11-02T04:20:40.112Z,23.90
2018-11-02T04:30:36.281Z,15.70
2018-11-02T04:32:38.358Z,20.97
2018-11-02T04:34:40.600Z,16.93
2018-11-02T06:58:56.496Z,9.20
2018-11-02T07:00:58.527Z,13.53
2018-11-02T07:03:00.634Z,6.50
2018-11-02T07:05:02.755Z,7.43
2018-11-02T07:07:04.896Z,7.07
2018-11-02T07:09:09.312Z,7.53
2018-11-02T07:11:11.377Z,8.53
2018-11-02T07:13:13.458Z,6.27
2018-11-02T07:25:48.926Z,9.00
2018-11-02T07:27:51.074Z,12.43
2018-11-02T07:29:53.194Z,9.87
2018-11-02T07:31:55.366Z,7.37
2018-11-02T07:33:57.496Z,10.63
2018-11-02T07:35:59.623Z,10.50
2018-11-02T07:38:01.841Z,11.70
2018-11-02T07:40:04.530Z,10.17
2018-11-02T07:42:06.640Z,10.97
2018-11-02T07:44:08.838Z,8.77
2018-11-02T07:46:10.971Z,9.47
2018-11-02T07:48:13.164Z,11.73
2018-11-02T07:50:15.314Z,9.90
2018-11-02T07:52:17.423Z,9.80
2018-11-02T07:54:19.557Z,13.80
2018-11-02T07:56:21.824Z,13.00
2018-11-02T07:58:24.007Z,11.00
2018-11-02T08:00:26.186Z,9.80
2018-11-02T08:02:28.389Z,13.83
2018-11-02T08:04:30.576Z,12.03
2018-11-02T08:06:32.784Z,10.37
2018-11-02T08:08:34.957Z,8.20
2018-11-02T08:10:37.112Z,9.27
2018-11-02T08:12:39.234Z,10.17
2018-11-02T08:14:41.376Z,13.77
2018-11-02T08:16:43.554Z,10.23
2018-11-02T08:18:45.780Z,12.10
2018-11-02T08:20:47.877Z,10.50
2018-11-02T08:22:49.990Z,15.20
2018-11-02T08:24:52.165Z,15.13
2018-11-02T08:26:54.518Z,12.97
2018-11-02T08:28:56.685Z,13.07
2018-11-02T08:30:58.873Z,14.23
2018-11-02T08:33:01.024Z,22.73
2018-11-02T08:35:03.724Z,21.03
2018-11-02T08:37:05.858Z,15.00
2018-11-02T08:39:08.998Z,15.90
2018-11-02T08:41:11.148Z,16.47
2018-11-02T08:43:13.250Z,16.37
2018-11-02T08:45:15.395Z,16.50
2018-11-02T12:17:46.819Z,18.10
2018-11-02T12:19:50.335Z,18.00
2018-11-02T12:21:52.628Z,17.87
2018-11-02T12:23:54.757Z,21.87
2018-11-02T12:25:56.909Z,11.03
2018-11-02T12:27:59.151Z,15.90
2018-11-02T12:30:02.883Z,11.53
2018-11-02T12:32:05.035Z,11.93
2018-11-02T12:34:07.550Z,15.57
2018-11-02T12:36:09.795Z,10.73
2018-11-02T12:38:11.984Z,13.93
2018-11-02T12:40:15.498Z,12.57
2018-11-02T12:42:17.718Z,13.73
2018-11-02T12:44:19.919Z,13.47
2018-11-02T12:46:22.155Z,10.93
2018-11-02T12:48:24.408Z,12.10
2018-11-02T12:50:27.662Z,11.50
2018-11-02T12:52:29.700Z,9.23
2018-11-02T12:54:31.901Z,11.47
2018-11-02T12:56:34.141Z,10.20
2018-11-02T12:58:36.293Z,12.33
2018-11-02T13:00:38.433Z,15.43
2018-11-02T13:02:41.294Z,13.33
2018-11-02T13:04:43.508Z,12.50
2018-11-02T13:06:45.745Z,14.43
2018-11-02T13:08:47.890Z,8.77
2018-11-02T13:10:50.100Z,10.27
2018-11-02T13:12:52.274Z,15.37
2018-11-02T13:14:58.933Z,12.20
2018-11-02T13:17:01.520Z,14.43
2018-11-02T13:19:04.320Z,11.10
2018-11-02T13:21:06.398Z,12.43
2018-11-02T13:23:08.554Z,16.00
2018-11-02T13:25:12.011Z,14.20
2018-11-02T13:27:14.182Z,20.00
2018-11-02T13:29:16.379Z,15.03
2018-11-02T13:31:18.645Z,17.53
2018-11-02T13:33:20.712Z,14.13
2018-11-02T13:35:23.165Z,7.37
2018-11-02T13:37:25.354Z,12.67
2018-11-02T13:39:27.521Z,12.47
2018-11-02T13:41:29.629Z,11.90
2018-11-02T13:43:32.060Z,10.83
2018-11-02T13:45:34.211Z,10.90
2018-11-02T13:47:36.382Z,8.17
2018-11-02T13:49:38.643Z,5.13
2018-11-02T13:51:40.771Z,6.90
2018-11-02T13:53:42.945Z,9.60
2018-11-02T13:55:45.163Z,5.23
2018-11-02T13:57:48.469Z,5.63
2018-11-02T13:59:50.638Z,4.97
2018-11-02T14:01:52.881Z,5.20
2018-11-02T14:03:57.683Z,7.60
2018-11-02T14:06:00.323Z,5.60
2018-11-02T14:08:02.588Z,5.67
2018-11-02T14:10:06.026Z,5.57
2018-11-02T14:12:08.347Z,4.50
2018-11-02T14:14:10.746Z,6.73
2018-11-02T14:16:13.955Z,5.90
2018-11-02T14:18:16.422Z,5.67
2018-11-02T14:20:19.949Z,6.70
2018-11-02T14:22:22.341Z,5.90
2018-11-02T14:24:24.558Z,9.27
2018-11-02T14:26:26.789Z,11.20
2018-11-02T14:28:29.051Z,10.80
2018-11-02T14:30:32.278Z,9.63
2018-11-02T14:32:34.908Z,9.47
2018-11-02T14:34:37.187Z,11.33
2018-11-02T14:36:40.209Z,11.07
2018-11-02T14:38:42.594Z,14.00
2018-11-02T14:40:45.190Z,14.90
2018-11-02T14:42:48.101Z,11.87
2018-11-02T14:44:50.466Z,12.40
2018-11-02T14:46:52.780Z,16.20
2018-11-02T14:48:55.473Z,15.47
2018-11-02T14:50:59.176Z,19.40
2018-11-02T14:53:03.501Z,18.83
2018-11-02T14:55:06.512Z,17.37
2018-11-02T14:57:08.751Z,15.87
2018-11-02T14:59:11.523Z,16.90
2018-11-02T15:01:14.828Z,16.40
2018-11-02T15:03:18.093Z,18.93
2018-11-02T15:05:20.427Z,23.53
2018-11-02T15:07:26.170Z,14.57
2018-11-02T15:09:28.603Z,15.40
2018-11-02T15:11:33.309Z,14.67
2018-11-02T15:13:35.500Z,48.43
2018-11-02T15:15:37.895Z,41.73
2018-11-02T15:17:40.154Z,21.37
2018-11-02T15:19:43.833Z,19.00
2018-11-02T15:21:46.275Z,20.23
2018-11-02T15:23:49.051Z,23.60
2018-11-02T15:25:54.299Z,24.90
2018-11-02T15:27:58.557Z,25.33
2018-11-02T15:30:03.139Z,18.10
2018-11-02T15:32:05.298Z,18.77
2018-11-02T15:34:07.869Z,18.90
2018-11-02T15:36:10.361Z,10.70
2018-11-02T15:38:12.971Z,19.43
2018-11-02T15:40:15.083Z,14.33
2018-11-02T15:42:19.495Z,17.07
2018-11-02T15:44:22.932Z,12.37
2018-11-02T15:46:25.106Z,13.23
2018-11-02T15:48:27.556Z,10.77
2018-11-02T15:50:30.562Z,18.23
2018-11-02T15:52:32.682Z,20.17
2018-11-02T15:54:34.836Z,17.73
2018-11-02T15:56:36.979Z,15.47
2018-11-02T15:58:39.234Z,22.70
2018-11-02T16:00:41.567Z,13.33
2018-11-02T16:02:44.938Z,11.40
2018-11-02T16:04:47.167Z,14.70
2018-11-02T16:06:49.395Z,16.17
2018-11-02T16:08:51.569Z,16.93
2018-11-02T16:10:54.987Z,12.10
2018-11-02T16:12:57.508Z,14.07
2018-11-02T16:14:59.991Z,13.90
2018-11-02T16:17:02.481Z,19.50
2018-11-02T16:19:04.768Z,20.73
2018-11-02T16:21:06.902Z,17.67
2018-11-02T16:23:09.384Z,18.30
2018-11-02T16:25:11.887Z,21.23
2018-11-02T16:27:14.015Z,13.13
2018-11-02T16:29:16.171Z,23.20
2018-11-02T16:31:18.526Z,18.53
2018-11-02T16:33:20.940Z,12.80
2018-11-02T16:35:23.063Z,16.80
2018-11-02T16:37:25.739Z,13.33
2018-11-02T16:39:28.047Z,23.83
2018-11-02T16:41:30.171Z,20.70
2018-11-02T16:43:32.394Z,14.53
2018-11-02T16:45:34.468Z,18.57
2018-11-02T16:47:36.702Z,24.27
2018-11-02T16:49:38.835Z,14.70
2018-11-02T16:51:41.034Z,15.00
2018-11-02T16:53:43.167Z,15.90
2018-11-02T16:55:45.270Z,21.87
2018-11-02T16:57:47.589Z,15.27
2018-11-02T16:59:49.667Z,19.57
2018-11-02T17:01:51.618Z,19.70
2018-11-02T17:03:53.740Z,21.23
2018-11-02T17:05:55.899Z,14.83
2018-11-02T17:07:57.971Z,21.57
2018-11-02T17:10:00.111Z,19.07
2018-11-02T17:12:02.288Z,15.17
2018-11-02T17:14:04.495Z,17.40
2018-11-02T17:16:06.637Z,15.77
2018-11-02T17:18:08.790Z,12.90
2018-11-02T17:20:12.882Z,18.70
2018-11-02T17:22:15.012Z,16.77
2018-11-02T17:24:17.163Z,15.77
2018-11-02T18:58:34.514Z,13.07
2018-11-02T19:00:36.812Z,20.60
2018-11-02T19:02:39.041Z,31.03
2018-11-02T19:04:41.176Z,15.00
